createdAt,value
2022-09-21T00:01:24.243Z,1.17
2022-09-21T00:03:58.565Z,1.80
2022-09-21T00:06:27.252Z,1.50
2022-09-21T00:08:55.605Z,1.50
2022-09-21T00:11:25.105Z,1.30
2022-09-21T00:13:57.784Z,1.45
2022-09-21T00:16:24.495Z,1.60
2022-09-21T00:18:51.209Z,1.35
2022-09-21T00:21:18.286Z,1.80
2022-09-21T00:23:45.538Z,1.20
2022-09-21T00:26:23.541Z,1.23
2022-09-21T00:28:59.310Z,1.70
2022-09-21T00:31:26.932Z,1.40
2022-09-21T00:33:54.077Z,1.48
2022-09-21T00:36:23.438Z,1.33
2022-09-21T00:38:55.234Z,1.73
2022-09-21T00:41:22.043Z,1.50
2022-09-21T00:44:08.611Z,1.27
2022-09-21T00:46:37.457Z,1.15
2022-09-21T00:49:04.022Z,1.40
2022-09-21T00:51:30.826Z,1.60
2022-09-21T00:54:04.832Z,1.20
2022-09-21T00:56:31.378Z,1.40
2022-09-21T00:58:58.331Z,1.25
2022-09-21T01:01:24.949Z,1.65
2022-09-21T01:03:53.593Z,1.33
2022-09-21T01:06:21.475Z,1.92
2022-09-21T01:08:54.028Z,1.88
2022-09-21T01:11:52.933Z,1.88
2022-09-21T01:14:30.930Z,1.42
2022-09-21T01:17:07.405Z,1.90
2022-09-21T01:19:55.878Z,1.60
2022-09-21T01:22:42.001Z,1.90
2022-09-21T01:25:41.523Z,1.83
2022-09-21T01:28:26.461Z,1.60
2022-09-21T01:30:55.640Z,1.13
2022-09-21T01:33:30.332Z,1.63
2022-09-21T01:36:01.871Z,1.42
2022-09-21T01:38:35.470Z,1.73
2022-09-21T01:41:06.835Z,1.70
2022-09-21T01:43:43.807Z,1.67
2022-09-21T01:46:16.016Z,1.42
2022-09-21T01:48:47.530Z,1.30
2022-09-21T01:51:18.548Z,1.85
2022-09-21T01:53:57.045Z,1.45
2022-09-21T01:56:27.806Z,1.17
2022-09-21T01:59:03.578Z,1.60
2022-09-21T02:01:35.215Z,1.60
2022-09-21T02:04:05.791Z,1.60
2022-09-21T02:06:32.808Z,1.60
2022-09-21T02:08:59.363Z,1.42
2022-09-21T02:11:26.540Z,1.75
2022-09-21T02:13:55.106Z,1.55
2022-09-21T02:16:36.296Z,1.70
2022-09-21T02:19:22.090Z,1.80
2022-09-21T02:22:10.126Z,1.55
2022-09-21T02:24:47.241Z,1.38
2022-09-21T02:27:35.350Z,1.33
2022-09-21T02:30:08.955Z,1.50
2022-09-21T02:32:58.709Z,1.70
2022-09-21T02:35:40.465Z,1.38
2022-09-21T02:38:15.710Z,1.42
2022-09-21T02:41:15.377Z,1.55
2022-09-21T02:43:51.945Z,1.30
2022-09-21T02:46:25.536Z,1.52
2022-09-21T02:49:00.799Z,1.50
2022-09-21T02:51:38.158Z,1.00
2022-09-21T02:54:08.438Z,1.27
2022-09-21T02:56:36.724Z,1.60
2022-09-21T02:59:05.711Z,1.30
2022-09-21T03:01:33.478Z,1.30
2022-09-21T03:04:01.197Z,1.33
2022-09-21T03:06:27.816Z,1.27
2022-09-21T03:08:54.341Z,1.38
2022-09-21T03:11:20.947Z,1.33
2022-09-21T03:13:47.470Z,1.25
2022-09-21T03:16:14.316Z,1.33
2022-09-21T03:18:42.177Z,1.17
2022-09-21T03:21:08.832Z,1.40
2022-09-21T03:23:35.610Z,1.35
2022-09-21T03:26:02.620Z,1.10
2022-09-21T03:28:29.122Z,1.00
2022-09-21T03:30:55.783Z,0.93
2022-09-21T03:33:22.412Z,1.60
2022-09-21T03:35:49.511Z,1.25
2022-09-21T03:38:16.926Z,1.15
2022-09-21T03:40:47.370Z,1.55
2022-09-21T03:43:14.263Z,1.02
2022-09-21T03:45:42.080Z,1.00
2022-09-21T03:48:10.538Z,1.10
2022-09-21T03:50:38.285Z,1.48
2022-09-21T03:53:05.452Z,0.90
2022-09-21T03:55:33.194Z,1.58
2022-09-21T03:57:59.819Z,1.60
2022-09-21T04:00:27.366Z,1.30
2022-09-21T04:02:53.920Z,1.50
2022-09-21T04:05:20.929Z,1.30
2022-09-21T04:07:47.739Z,1.35
2022-09-21T04:10:17.700Z,1.30
2022-09-21T04:12:45.426Z,1.65
2022-09-21T04:15:14.142Z,1.77
2022-09-21T04:17:41.363Z,1.55
2022-09-21T04:20:09.221Z,1.67
2022-09-21T04:22:41.105Z,1.10
2022-09-21T04:25:10.853Z,1.50
2022-09-21T04:27:37.387Z,1.10
2022-09-21T04:30:05.093Z,1.40
2022-09-21T04:32:31.790Z,1.55
2022-09-21T04:34:58.314Z,1.15
2022-09-21T04:37:24.879Z,1.20
2022-09-21T04:39:51.509Z,1.10
2022-09-21T04:42:18.086Z,1.38
2022-09-21T04:44:44.963Z,1.38
2022-09-21T04:47:11.937Z,2.13
2022-09-21T04:49:38.674Z,1.20
2022-09-21T04:52:06.043Z,1.05
2022-09-21T04:54:32.589Z,1.45
2022-09-21T04:56:59.085Z,1.10
2022-09-21T04:59:25.649Z,1.00
2022-09-21T05:01:52.204Z,1.08
2022-09-21T05:04:18.764Z,1.75
2022-09-21T05:06:45.290Z,1.27
2022-09-21T05:09:30.072Z,1.52
2022-09-21T05:11:56.609Z,1.13
2022-09-21T05:14:23.144Z,1.40
2022-09-21T05:16:49.784Z,1.00
2022-09-21T05:19:17.361Z,1.38
2022-09-21T05:21:43.932Z,0.95
2022-09-21T05:24:10.552Z,1.45
2022-09-21T05:26:37.814Z,1.60
2022-09-21T05:29:05.141Z,1.10
2022-09-21T05:31:56.482Z,1.48
2022-09-21T05:34:36.390Z,1.73
2022-09-21T05:37:21.339Z,1.25
2022-09-21T05:39:48.172Z,1.10
2022-09-21T05:42:14.937Z,1.38
2022-09-21T05:44:41.821Z,1.50
2022-09-21T05:47:33.062Z,1.38
2022-09-21T05:49:59.496Z,1.20
2022-09-21T05:52:38.454Z,1.83
2022-09-21T05:55:34.504Z,1.38
2022-09-21T05:58:31.913Z,1.38
2022-09-21T06:01:19.725Z,1.65
2022-09-21T06:03:48.840Z,1.50
2022-09-21T06:06:20.635Z,1.58
2022-09-21T06:08:47.175Z,1.05
2022-09-21T06:11:14.202Z,1.20
2022-09-21T06:13:43.823Z,1.27
2022-09-21T06:16:10.505Z,1.75
2022-09-21T06:18:41.222Z,1.75
2022-09-21T06:21:08.656Z,1.70
2022-09-21T06:23:36.048Z,1.40
2022-09-21T06:26:02.718Z,1.95
2022-09-21T06:28:29.849Z,1.67
2022-09-21T06:30:58.147Z,1.40
2022-09-21T06:33:25.140Z,1.70
2022-09-21T06:35:54.118Z,1.60
2022-09-21T06:38:21.061Z,1.42
2022-09-21T06:40:47.819Z,1.45
2022-09-21T06:43:14.355Z,1.23
2022-09-21T06:45:41.090Z,1.60
2022-09-21T06:48:07.734Z,1.65
2022-09-21T06:50:34.256Z,1.38
2022-09-21T06:53:01.332Z,1.15
2022-09-21T06:55:28.209Z,1.75
2022-09-21T06:58:03.665Z,1.80
2022-09-21T07:00:34.611Z,1.55
2022-09-21T07:03:01.361Z,1.45
2022-09-21T07:05:28.219Z,1.60
2022-09-21T07:07:58.871Z,1.17
2022-09-21T07:10:26.320Z,1.70
2022-09-21T07:12:53.243Z,1.60
2022-09-21T07:15:20.528Z,1.38
2022-09-21T07:17:51.677Z,1.80
2022-09-21T07:20:18.854Z,1.67
2022-09-21T07:22:45.692Z,1.35
2022-09-21T07:25:12.515Z,1.73
2022-09-21T07:27:39.425Z,1.45
2022-09-21T07:30:07.270Z,1.33
2022-09-21T07:32:34.288Z,1.33
2022-09-21T07:35:00.933Z,1.92
2022-09-21T07:37:28.967Z,1.70
2022-09-21T07:39:55.532Z,1.25
2022-09-21T07:42:22.960Z,1.33
2022-09-21T07:44:50.937Z,1.30
2022-09-21T07:47:17.688Z,1.50
2022-09-21T07:49:44.539Z,1.30
2022-09-21T07:52:11.433Z,1.25
2022-09-21T07:54:38.192Z,1.25
2022-09-21T07:57:23.727Z,1.63
2022-09-21T07:59:50.699Z,1.20
2022-09-21T08:02:17.320Z,1.35
2022-09-21T08:04:43.903Z,1.75
2022-09-21T08:07:10.466Z,1.10
2022-09-21T08:09:37.197Z,1.15
2022-09-21T08:12:06.762Z,1.30
2022-09-21T08:14:34.637Z,1.30
2022-09-21T08:17:01.794Z,1.30
2022-09-21T08:19:28.293Z,1.38
2022-09-21T08:21:57.566Z,1.80
2022-09-21T08:24:25.078Z,1.40
2022-09-21T08:26:52.283Z,1.65
2022-09-21T08:29:19.194Z,1.73
2022-09-21T08:31:46.855Z,1.50
2022-09-21T08:34:14.279Z,1.52
2022-09-21T08:36:41.097Z,1.50
2022-09-21T08:39:08.404Z,1.45
2022-09-21T08:41:57.527Z,1.90
2022-09-21T08:44:29.741Z,1.42
2022-09-21T08:47:10.088Z,1.33
2022-09-21T08:49:40.467Z,1.10
2022-09-21T08:52:16.242Z,1.55
2022-09-21T08:54:56.773Z,1.25
2022-09-21T08:57:28.960Z,1.55
2022-09-21T08:59:55.502Z,1.70
2022-09-21T09:02:43.950Z,1.60
2022-09-21T09:05:48.622Z,2.00
2022-09-21T09:08:24.320Z,4.68
2022-09-21T09:11:27.972Z,4.32
2022-09-21T09:14:26.510Z,9.52
2022-09-21T09:17:17.076Z,3.72
2022-09-21T09:20:10.696Z,4.20
2022-09-21T09:22:43.257Z,4.20
2022-09-21T09:25:35.010Z,4.30
2022-09-21T09:28:15.843Z,3.70
2022-09-21T09:30:43.341Z,5.85
2022-09-21T09:33:36.027Z,4.20
2022-09-21T09:36:05.877Z,4.35
2022-09-21T09:38:36.707Z,4.38
2022-09-21T09:41:29.181Z,4.22
2022-09-21T09:44:14.389Z,4.20
2022-09-21T09:46:58.508Z,4.28
2022-09-21T09:49:50.926Z,3.78
2022-09-21T09:52:17.587Z,6.80
2022-09-21T09:54:44.623Z,4.07
2022-09-21T09:57:12.824Z,4.45
2022-09-21T09:59:55.389Z,5.88
2022-09-21T10:02:25.162Z,3.95
2022-09-21T10:05:03.850Z,3.80
2022-09-21T10:07:37.492Z,3.80
2022-09-21T10:10:27.042Z,4.00
2022-09-21T10:12:53.758Z,7.07
2022-09-21T10:15:24.001Z,3.90
2022-09-21T10:18:02.064Z,3.80
2022-09-21T10:20:30.925Z,4.15
2022-09-21T10:23:00.874Z,5.63
2022-09-21T10:25:27.674Z,3.50
2022-09-21T10:27:56.026Z,4.18
2022-09-21T10:30:35.372Z,4.35
2022-09-21T10:33:02.140Z,3.75
2022-09-21T10:35:29.750Z,3.60
2022-09-21T10:38:11.645Z,3.10
2022-09-21T10:40:39.942Z,3.60
2022-09-21T10:43:24.115Z,3.25
2022-09-21T10:45:56.934Z,3.33
2022-09-21T10:48:27.094Z,3.00
2022-09-21T10:50:56.746Z,3.90
2022-09-21T10:53:30.441Z,3.72
2022-09-21T10:56:18.976Z,3.90
2022-09-21T10:59:20.233Z,4.07
2022-09-21T11:01:49.599Z,3.63
2022-09-21T11:04:24.913Z,3.63
2022-09-21T11:07:02.357Z,3.03
2022-09-21T11:09:41.290Z,3.17
2022-09-21T11:12:34.070Z,5.07
2022-09-21T11:15:30.388Z,3.20
2022-09-21T11:18:16.836Z,3.30
2022-09-21T11:20:52.979Z,3.10
2022-09-21T11:23:41.252Z,3.38
2022-09-21T11:26:13.279Z,3.58
2022-09-21T11:28:49.009Z,3.20
2022-09-21T11:31:28.371Z,2.90
2022-09-21T11:34:26.140Z,3.25
2022-09-21T11:37:00.908Z,3.00
2022-09-21T11:40:01.731Z,4.38
2022-09-21T11:42:56.871Z,3.70
2022-09-21T11:45:50.765Z,3.03
2022-09-21T11:48:37.413Z,3.05
2022-09-21T11:51:25.814Z,3.45
2022-09-21T11:54:15.212Z,3.30
2022-09-21T11:57:08.575Z,3.38
2022-09-21T12:00:04.200Z,3.30
2022-09-21T12:02:52.709Z,5.05
2022-09-21T12:05:37.637Z,3.00
2022-09-21T12:08:13.224Z,3.20
2022-09-21T12:10:44.948Z,3.10
2022-09-21T12:13:19.135Z,3.33
2022-09-21T12:15:57.583Z,3.10
2022-09-21T12:18:32.638Z,3.22
2022-09-21T12:21:08.204Z,3.20
2022-09-21T12:23:37.560Z,4.40
2022-09-21T12:26:06.382Z,4.10
2022-09-21T12:28:41.523Z,3.10
2022-09-21T12:31:45.054Z,2.80
2022-09-21T12:34:18.991Z,3.15
2022-09-21T12:37:08.540Z,3.65
2022-09-21T12:40:07.140Z,3.10
2022-09-21T12:42:38.701Z,3.00
2022-09-21T12:45:25.491Z,3.00
2022-09-21T12:48:04.433Z,3.22
2022-09-21T12:50:39.353Z,3.83
2022-09-21T12:53:07.945Z,3.90
2022-09-21T12:55:35.596Z,3.50
2022-09-21T12:58:15.528Z,3.20
2022-09-21T13:01:06.080Z,3.40
2022-09-21T13:03:53.424Z,3.80
2022-09-21T13:06:42.851Z,3.72
2022-09-21T13:09:15.189Z,3.53
2022-09-21T13:12:07.964Z,3.35
2022-09-21T13:14:41.606Z,3.80
2022-09-21T13:17:22.867Z,3.40
2022-09-21T13:20:26.446Z,3.42
2022-09-21T13:23:02.797Z,3.78
2022-09-21T13:25:32.653Z,3.65
2022-09-21T13:28:13.130Z,3.30
2022-09-21T13:30:48.156Z,3.58
2022-09-21T13:33:20.489Z,3.60
2022-09-21T13:36:08.060Z,3.20
2022-09-21T13:38:47.988Z,4.32
2022-09-21T13:41:17.554Z,3.58
2022-09-21T13:43:54.144Z,3.70
2022-09-21T13:46:48.677Z,3.42
2022-09-21T13:49:15.511Z,3.30
2022-09-21T13:52:10.154Z,3.45
2022-09-21T13:54:48.316Z,3.38
2022-09-21T13:57:27.984Z,3.35
2022-09-21T14:00:20.258Z,3.20
2022-09-21T14:03:00.775Z,3.78
2022-09-21T14:05:39.904Z,3.10
2022-09-21T14:08:15.245Z,3.03
2022-09-21T14:10:58.109Z,3.00
2022-09-21T14:13:38.229Z,4.38
2022-09-21T14:16:29.538Z,4.70
2022-09-21T14:18:56.593Z,3.10
2022-09-21T14:21:23.358Z,3.00
2022-09-21T14:24:08.145Z,2.70
2022-09-21T14:26:40.986Z,3.17
2022-09-21T14:29:41.666Z,3.20
2022-09-21T14:32:16.294Z,2.83
2022-09-21T14:34:46.937Z,2.80
2022-09-21T14:37:27.669Z,2.35
2022-09-21T14:39:54.756Z,3.08
2022-09-21T14:42:28.916Z,3.45
2022-09-21T14:45:01.380Z,3.28
2022-09-21T14:47:52.867Z,2.70
2022-09-21T14:50:33.218Z,3.03
2022-09-21T14:53:28.221Z,2.80
2022-09-21T14:56:11.889Z,4.53
2022-09-21T14:59:17.333Z,2.80
2022-09-21T15:02:21.828Z,3.20
2022-09-21T15:05:07.376Z,2.80
2022-09-21T15:08:06.082Z,2.92
2022-09-21T15:10:57.307Z,3.20
2022-09-21T15:13:47.076Z,3.20
2022-09-21T15:16:36.369Z,3.60
2022-09-21T15:19:14.590Z,3.83
2022-09-21T15:21:49.521Z,3.15
2022-09-21T15:24:24.951Z,3.10
2022-09-21T15:26:54.866Z,3.38
2022-09-21T15:29:31.457Z,3.30
2022-09-21T15:31:59.756Z,3.00
2022-09-21T15:34:26.808Z,3.13
2022-09-21T15:36:53.473Z,3.22
2022-09-21T15:39:24.580Z,3.10
2022-09-21T15:42:08.108Z,3.30
2022-09-21T15:44:39.539Z,3.20
2022-09-21T15:47:12.938Z,3.10
2022-09-21T15:49:40.774Z,3.30
2022-09-21T15:52:40.484Z,3.30
2022-09-21T15:55:25.353Z,3.20
2022-09-21T15:57:57.975Z,3.63
2022-09-21T16:00:35.220Z,3.63
2022-09-21T16:03:15.718Z,3.40
2022-09-21T16:05:53.733Z,3.50
2022-09-21T16:08:36.593Z,0.88
2022-09-21T16:11:35.794Z,1.20
2022-09-21T16:14:29.433Z,1.27
2022-09-21T16:17:17.955Z,1.10
2022-09-21T16:19:56.766Z,0.70
2022-09-21T16:22:44.873Z,1.00
2022-09-21T16:25:24.706Z,0.93
2022-09-21T16:27:59.863Z,0.77
2022-09-21T16:30:44.129Z,0.60
2022-09-21T16:33:42.222Z,0.90
2022-09-21T16:36:17.661Z,0.70
2022-09-21T16:38:45.037Z,0.70
2022-09-21T16:41:11.614Z,0.90
2022-09-21T16:43:40.425Z,1.08
2022-09-21T16:46:08.246Z,0.90
2022-09-21T16:49:01.543Z,1.17
2022-09-21T16:51:28.612Z,1.17
2022-09-21T16:53:56.533Z,0.70
2022-09-21T16:56:23.145Z,0.68
2022-09-21T16:58:51.055Z,0.85
2022-09-21T17:01:22.133Z,0.55
2022-09-21T17:03:48.754Z,1.13
2022-09-21T17:06:20.198Z,1.02
2022-09-21T17:08:49.897Z,0.70
2022-09-21T17:11:21.995Z,0.80
2022-09-21T17:13:50.108Z,1.80
2022-09-21T17:16:18.968Z,0.70
2022-09-21T17:18:46.843Z,0.93
2022-09-21T17:21:14.269Z,0.98
2022-09-21T17:23:41.980Z,0.70
2022-09-21T17:26:21.951Z,0.98
2022-09-21T17:28:48.892Z,0.77
2022-09-21T17:31:16.704Z,0.50
2022-09-21T17:33:51.899Z,0.60
2022-09-21T17:36:18.976Z,0.63
2022-09-21T17:38:45.558Z,0.90
2022-09-21T17:45:01.639Z,1.45
2022-09-21T17:47:30.860Z,1.20
2022-09-21T17:50:13.102Z,0.93
2022-09-21T17:52:59.777Z,1.27
2022-09-21T17:55:26.790Z,1.33
2022-09-21T17:58:05.866Z,1.15
2022-09-21T18:00:50.634Z,0.93
2022-09-21T18:03:28.807Z,0.90
2022-09-21T18:06:00.827Z,1.33
2022-09-21T18:08:29.250Z,1.40
2022-09-21T18:11:29.454Z,1.08
2022-09-21T18:14:05.596Z,1.05
2022-09-21T18:16:48.779Z,1.10
2022-09-21T18:19:18.153Z,1.30
2022-09-21T18:21:47.587Z,1.27
2022-09-21T18:24:20.147Z,1.17
2022-09-21T18:26:49.119Z,1.40
2022-09-21T18:29:46.527Z,1.40
2022-09-21T18:32:49.600Z,1.38
2022-09-21T18:35:31.677Z,1.20
2022-09-21T18:38:04.365Z,1.20
2022-09-21T18:41:03.360Z,0.98
2022-09-21T18:43:41.304Z,1.33
2022-09-21T18:46:18.238Z,1.52
2022-09-21T18:49:00.182Z,1.17
2022-09-21T18:51:55.228Z,1.48
2022-09-21T18:54:30.511Z,1.17
2022-09-21T18:56:58.011Z,1.45
2022-09-21T18:59:29.600Z,1.17
2022-09-21T19:01:59.489Z,1.50
2022-09-21T19:04:28.124Z,1.15
2022-09-21T19:07:10.896Z,1.00
2022-09-21T19:10:15.458Z,1.40
2022-09-21T19:13:16.194Z,1.30
2022-09-21T19:16:11.621Z,1.00
2022-09-21T19:19:10.377Z,0.95
2022-09-21T19:21:40.310Z,1.15
2022-09-21T19:24:13.404Z,1.27
2022-09-21T19:27:04.722Z,0.85
2022-09-21T19:29:44.969Z,0.70
2022-09-21T19:32:17.985Z,1.00
2022-09-21T19:34:44.842Z,1.08
2022-09-21T19:37:11.632Z,1.30
2022-09-21T19:39:38.793Z,1.10
2022-09-21T19:42:17.259Z,1.35
2022-09-21T19:45:06.606Z,1.23
2022-09-21T19:47:53.547Z,1.20
2022-09-21T19:50:25.931Z,1.17
2022-09-21T19:53:13.110Z,1.00
2022-09-21T19:56:01.210Z,1.38
2022-09-21T19:58:46.721Z,1.10
2022-09-21T20:01:17.938Z,1.30
2022-09-21T20:03:46.418Z,1.13
2022-09-21T20:06:27.136Z,1.27
2022-09-21T20:09:12.272Z,1.15
2022-09-21T20:12:06.703Z,2.03
2022-09-21T20:14:42.546Z,2.60
2022-09-21T20:17:38.650Z,2.05
2022-09-21T20:20:30.528Z,2.63
2022-09-21T20:22:58.585Z,3.03
2022-09-21T20:25:31.373Z,2.78
2022-09-21T20:27:59.196Z,3.00
2022-09-21T20:30:28.668Z,3.55
2022-09-21T20:33:07.642Z,3.53
2022-09-21T20:35:34.845Z,2.75
2022-09-21T20:38:03.012Z,3.75
2022-09-21T20:40:31.179Z,2.95
2022-09-21T20:43:03.800Z,3.10
2022-09-21T20:45:30.719Z,2.60
2022-09-21T20:48:12.922Z,2.70
2022-09-21T20:50:48.909Z,2.90
2022-09-21T20:53:15.576Z,2.38
2022-09-21T20:55:43.991Z,2.85
2022-09-21T20:58:13.600Z,1.98
2022-09-21T21:00:40.224Z,2.05
2022-09-21T21:03:06.733Z,1.73
2022-09-21T21:05:33.308Z,1.73
2022-09-21T21:07:59.892Z,1.50
2022-09-21T21:10:26.438Z,0.90
2022-09-21T21:12:52.961Z,1.08
2022-09-21T21:15:19.521Z,1.00
2022-09-21T21:17:47.345Z,1.48
2022-09-21T21:20:16.312Z,1.15
2022-09-21T21:22:44.579Z,1.13
2022-09-21T21:25:11.561Z,1.40
2022-09-21T21:30:24.799Z,1.58
2022-09-21T21:32:53.159Z,1.23
2022-09-21T21:35:20.222Z,1.58
2022-09-21T21:37:46.716Z,1.85
2022-09-21T21:40:13.278Z,1.60
2022-09-21T21:42:39.847Z,1.80
2022-09-21T21:45:06.906Z,1.30
2022-09-21T21:47:41.361Z,1.40
2022-09-21T21:50:09.292Z,1.25
2022-09-21T21:52:35.821Z,1.30
2022-09-21T21:55:02.582Z,1.10
2022-09-21T21:57:29.195Z,0.90
2022-09-21T21:59:55.703Z,1.02
2022-09-21T22:02:22.357Z,1.10
2022-09-21T22:04:48.935Z,0.98
2022-09-21T22:07:15.452Z,1.50
2022-09-21T22:09:41.961Z,1.48
2022-09-21T22:12:09.113Z,1.25
2022-09-21T22:14:35.611Z,0.95
2022-09-21T22:17:02.247Z,1.15
2022-09-21T22:19:28.814Z,1.15
2022-09-21T22:21:55.345Z,1.38
2022-09-21T22:24:22.323Z,1.15
2022-09-21T22:26:48.948Z,1.00
2022-09-21T22:29:17.107Z,1.00
2022-09-21T22:31:46.280Z,0.80
2022-09-21T22:34:14.621Z,1.33
2022-09-21T22:36:43.544Z,0.90
2022-09-21T22:39:10.890Z,1.50
2022-09-21T22:41:39.585Z,1.30
2022-09-21T22:44:07.241Z,0.95
2022-09-21T22:46:34.525Z,0.90
2022-09-21T22:49:01.316Z,1.30
2022-09-21T22:51:29.136Z,1.00
2022-09-21T22:53:56.102Z,1.20
2022-09-21T22:56:25.631Z,1.00
2022-09-21T22:58:55.165Z,0.85
2022-09-21T23:01:25.536Z,1.20
2022-09-21T23:03:55.805Z,1.02
2022-09-21T23:06:26.505Z,1.10
2022-09-21T23:08:54.730Z,1.15
2022-09-21T23:11:24.105Z,0.80
2022-09-21T23:13:50.669Z,1.00
2022-09-21T23:16:19.153Z,0.90
2022-09-21T23:18:48.390Z,0.75
2022-09-21T23:21:18.020Z,1.45
2022-09-21T23:23:45.438Z,0.93
2022-09-21T23:26:18.099Z,0.80
2022-09-21T23:28:46.376Z,0.95
2022-09-21T23:31:15.086Z,1.02
2022-09-21T23:33:47.527Z,0.88
2022-09-21T23:36:16.483Z,1.10
2022-09-21T23:38:44.045Z,1.27
2022-09-21T23:41:14.074Z,1.02
2022-09-21T23:43:42.391Z,1.13
2022-09-21T23:46:11.676Z,0.90
2022-09-21T23:48:38.949Z,0.80
2022-09-21T23:51:06.729Z,1.20
2022-09-21T23:53:33.766Z,1.50
2022-09-21T23:56:00.592Z,1.20
2022-09-21T23:58:27.820Z,1.30
